sensor_id;sensor_type;location;lat;lon;timestamp;P1;durP1;ratioP1;P2;durP2;ratioP2
9208;SDS011;4639;48.862;9.188;2023-05-16T00:01:15;15.35;;;13.75;;
9208;SDS011;4639;48.862;9.188;2023-05-16T00:03:41;17.17;;;15.27;;
9208;SDS011;4639;48.862;9.188;2023-05-16T00:06:07;15.27;;;13.77;;
9208;SDS011;4639;48.862;9.188;2023-05-16T00:08:33;16.45;;;14.70;;
9208;SDS011;4639;48.862;9.188;2023-05-16T00:10:59;16.02;;;14.43;;
9208;SDS011;4639;48.862;9.188;2023-05-16T00:13:25;16.52;;;14.93;;
9208;SDS011;4639;48.862;9.188;2023-05-16T00:15:52;16.85;;;15.18;;
9208;SDS011;4639;48.862;9.188;2023-05-16T00:18:19;16.08;;;14.52;;
9208;SDS011;4639;48.862;9.188;2023-05-16T00:20:46;14.70;;;13.15;;
9208;SDS011;4639;48.862;9.188;2023-05-16T00:23:17;17.08;;;15.32;;
9208;SDS011;4639;48.862;9.188;2023-05-16T00:25:42;16.92;;;15.23;;
9208;SDS011;4639;48.862;9.188;2023-05-16T00:28:08;16.83;;;15.10;;
9208;SDS011;4639;48.862;9.188;2023-05-16T00:30:34;16.20;;;14.63;;
9208;SDS011;4639;48.862;9.188;2023-05-16T00:32:59;16.83;;;15.15;;
9208;SDS011;4639;48.862;9.188;2023-05-16T00:35:26;16.88;;;15.18;;
9208;SDS011;4639;48.862;9.188;2023-05-16T00:37:51;16.60;;;15.05;;
9208;SDS011;4639;48.862;9.188;2023-05-16T00:40:17;17.17;;;15.40;;
9208;SDS011;4639;48.862;9.188;2023-05-16T00:42:43;18.25;;;16.45;;
9208;SDS011;4639;48.862;9.188;2023-05-16T00:45:08;19.88;;;17.63;;
9208;SDS011;4639;48.862;9.188;2023-05-16T00:47:35;19.40;;;17.52;;
9208;SDS011;4639;48.862;9.188;2023-05-16T00:50:01;19.60;;;17.63;;
9208;SDS011;4639;48.862;9.188;2023-05-16T00:52:28;22.05;;;19.08;;
9208;SDS011;4639;48.862;9.188;2023-05-16T00:54:54;21.40;;;18.30;;
9208;SDS011;4639;48.862;9.188;2023-05-16T00:57:20;20.40;;;18.25;;
9208;SDS011;4639;48.862;9.188;2023-05-16T00:59:46;22.30;;;20.00;;
9208;SDS011;4639;48.862;9.188;2023-05-16T01:02:12;21.52;;;19.38;;
9208;SDS011;4639;48.862;9.188;2023-05-16T01:04:38;23.92;;;20.73;;
9208;SDS011;4639;48.862;9.188;2023-05-16T01:07:04;24.92;;;20.70;;
9208;SDS011;4639;48.862;9.188;2023-05-16T01:09:30;23.75;;;20.27;;
9208;SDS011;4639;48.862;9.188;2023-05-16T01:25:20;23.65;;;21.17;;
9208;SDS011;4639;48.862;9.188;2023-05-16T01:27:52;23.02;;;20.63;;
9208;SDS011;4639;48.862;9.188;2023-05-16T01:30:19;23.27;;;21.08;;
9208;SDS011;4639;48.862;9.188;2023-05-16T01:32:45;23.35;;;20.95;;
9208;SDS011;4639;48.862;9.188;2023-05-16T01:35:12;24.55;;;21.63;;
9208;SDS011;4639;48.862;9.188;2023-05-16T01:37:51;24.35;;;21.85;;
9208;SDS011;4639;48.862;9.188;2023-05-16T01:40:51;24.85;;;22.33;;
9208;SDS011;4639;48.862;9.188;2023-05-16T01:43:24;25.83;;;23.33;;
9208;SDS011;4639;48.862;9.188;2023-05-16T01:45:58;28.13;;;25.20;;
9208;SDS011;4639;48.862;9.188;2023-05-16T01:48:31;30.02;;;26.38;;
9208;SDS011;4639;48.862;9.188;2023-05-16T01:51:01;30.38;;;27.40;;
9208;SDS011;4639;48.862;9.188;2023-05-16T01:53:28;32.90;;;27.48;;
9208;SDS011;4639;48.862;9.188;2023-05-16T01:56:03;31.13;;;27.67;;
9208;SDS011;4639;48.862;9.188;2023-05-16T01:58:32;31.13;;;27.88;;
9208;SDS011;4639;48.862;9.188;2023-05-16T02:01:01;31.83;;;28.42;;
9208;SDS011;4639;48.862;9.188;2023-05-16T02:03:28;34.42;;;30.20;;
9208;SDS011;4639;48.862;9.188;2023-05-16T02:05:54;34.22;;;29.95;;
9208;SDS011;4639;48.862;9.188;2023-05-16T02:08:20;34.60;;;31.10;;
9208;SDS011;4639;48.862;9.188;2023-05-16T02:10:46;37.05;;;30.50;;
9208;SDS011;4639;48.862;9.188;2023-05-16T02:13:11;37.25;;;32.42;;
9208;SDS011;4639;48.862;9.188;2023-05-16T02:15:37;37.92;;;33.50;;
9208;SDS011;4639;48.862;9.188;2023-05-16T02:18:03;38.22;;;33.38;;
9208;SDS011;4639;48.862;9.188;2023-05-16T02:20:29;37.65;;;33.03;;
9208;SDS011;4639;48.862;9.188;2023-05-16T02:22:54;41.60;;;34.08;;
9208;SDS011;4639;48.862;9.188;2023-05-16T02:25:20;37.95;;;33.40;;
9208;SDS011;4639;48.862;9.188;2023-05-16T02:27:46;40.53;;;34.35;;
9208;SDS011;4639;48.862;9.188;2023-05-16T02:30:11;40.70;;;35.30;;
9208;SDS011;4639;48.862;9.188;2023-05-16T02:32:40;41.90;;;34.95;;
9208;SDS011;4639;48.862;9.188;2023-05-16T02:35:08;43.03;;;35.20;;
9208;SDS011;4639;48.862;9.188;2023-05-16T02:37:35;42.08;;;34.65;;
9208;SDS011;4639;48.862;9.188;2023-05-16T02:40:01;41.10;;;34.92;;
9208;SDS011;4639;48.862;9.188;2023-05-16T02:42:28;44.22;;;36.13;;
9208;SDS011;4639;48.862;9.188;2023-05-16T02:44:54;42.80;;;36.10;;
9208;SDS011;4639;48.862;9.188;2023-05-16T02:47:20;44.20;;;36.40;;
9208;SDS011;4639;48.862;9.188;2023-05-16T02:49:45;44.75;;;37.10;;
9208;SDS011;4639;48.862;9.188;2023-05-16T02:52:11;48.17;;;38.78;;
9208;SDS011;4639;48.862;9.188;2023-05-16T02:54:37;50.05;;;38.60;;
9208;SDS011;4639;48.862;9.188;2023-05-16T02:57:03;46.72;;;36.97;;
9208;SDS011;4639;48.862;9.188;2023-05-16T02:59:28;43.42;;;38.13;;
9208;SDS011;4639;48.862;9.188;2023-05-16T03:01:54;47.97;;;39.88;;
9208;SDS011;4639;48.862;9.188;2023-05-16T03:04:20;51.53;;;39.88;;
9208;SDS011;4639;48.862;9.188;2023-05-16T03:06:46;53.58;;;40.45;;
9208;SDS011;4639;48.862;9.188;2023-05-16T03:09:11;50.30;;;39.28;;
9208;SDS011;4639;48.862;9.188;2023-05-16T03:11:37;50.85;;;39.92;;
9208;SDS011;4639;48.862;9.188;2023-05-16T03:14:02;56.75;;;41.00;;
9208;SDS011;4639;48.862;9.188;2023-05-16T03:16:28;53.33;;;42.65;;
9208;SDS011;4639;48.862;9.188;2023-05-16T03:18:54;53.03;;;40.90;;
9208;SDS011;4639;48.862;9.188;2023-05-16T03:21:20;60.17;;;42.80;;
9208;SDS011;4639;48.862;9.188;2023-05-16T03:23:45;58.25;;;43.55;;
9208;SDS011;4639;48.862;9.188;2023-05-16T03:26:11;57.65;;;42.22;;
9208;SDS011;4639;48.862;9.188;2023-05-16T03:28:36;65.32;;;46.40;;
9208;SDS011;4639;48.862;9.188;2023-05-16T03:31:02;61.83;;;47.20;;
9208;SDS011;4639;48.862;9.188;2023-05-16T03:33:27;68.18;;;47.70;;
9208;SDS011;4639;48.862;9.188;2023-05-16T03:35:53;63.72;;;47.60;;
9208;SDS011;4639;48.862;9.188;2023-05-16T03:38:19;64.97;;;47.03;;
9208;SDS011;4639;48.862;9.188;2023-05-16T03:40:45;68.20;;;48.17;;
9208;SDS011;4639;48.862;9.188;2023-05-16T03:43:11;63.47;;;47.72;;
9208;SDS011;4639;48.862;9.188;2023-05-16T03:45:36;67.68;;;49.17;;
9208;SDS011;4639;48.862;9.188;2023-05-16T03:48:02;72.95;;;48.30;;
9208;SDS011;4639;48.862;9.188;2023-05-16T03:50:28;72.30;;;49.72;;
9208;SDS011;4639;48.862;9.188;2023-05-16T03:52:53;70.68;;;48.25;;
9208;SDS011;4639;48.862;9.188;2023-05-16T03:55:19;68.63;;;49.13;;
9208;SDS011;4639;48.862;9.188;2023-05-16T03:57:45;76.93;;;51.83;;
9208;SDS011;4639;48.862;9.188;2023-05-16T04:00:11;69.30;;;49.40;;
9208;SDS011;4639;48.862;9.188;2023-05-16T04:02:38;72.90;;;52.83;;
9208;SDS011;4639;48.862;9.188;2023-05-16T04:05:05;78.55;;;52.85;;
9208;SDS011;4639;48.862;9.188;2023-05-16T04:07:32;75.93;;;51.80;;
9208;SDS011;4639;48.862;9.188;2023-05-16T04:09:58;69.03;;;51.13;;
9208;SDS011;4639;48.862;9.188;2023-05-16T04:12:23;72.05;;;48.92;;
9208;SDS011;4639;48.862;9.188;2023-05-16T04:14:49;71.60;;;50.33;;
9208;SDS011;4639;48.862;9.188;2023-05-16T04:17:14;74.97;;;50.47;;
9208;SDS011;4639;48.862;9.188;2023-05-16T04:19:40;70.18;;;50.15;;
9208;SDS011;4639;48.862;9.188;2023-05-16T04:22:05;74.38;;;49.65;;
9208;SDS011;4639;48.862;9.188;2023-05-16T04:24:31;76.25;;;49.80;;
9208;SDS011;4639;48.862;9.188;2023-05-16T04:26:57;65.07;;;48.13;;
9208;SDS011;4639;48.862;9.188;2023-05-16T04:29:23;76.35;;;51.17;;
9208;SDS011;4639;48.862;9.188;2023-05-16T04:31:48;78.32;;;51.75;;
9208;SDS011;4639;48.862;9.188;2023-05-16T04:34:14;74.55;;;51.22;;
9208;SDS011;4639;48.862;9.188;2023-05-16T04:36:40;81.40;;;52.70;;
9208;SDS011;4639;48.862;9.188;2023-05-16T04:39:06;67.90;;;49.10;;
9208;SDS011;4639;48.862;9.188;2023-05-16T04:41:32;72.05;;;48.05;;
9208;SDS011;4639;48.862;9.188;2023-05-16T04:44:02;65.47;;;48.40;;
9208;SDS011;4639;48.862;9.188;2023-05-16T04:46:30;68.70;;;47.92;;
9208;SDS011;4639;48.862;9.188;2023-05-16T04:48:56;64.82;;;46.80;;
9208;SDS011;4639;48.862;9.188;2023-05-16T04:51:21;66.25;;;46.75;;
9208;SDS011;4639;48.862;9.188;2023-05-16T04:53:47;64.68;;;45.28;;
9208;SDS011;4639;48.862;9.188;2023-05-16T04:56:12;92.90;;;68.05;;
9208;SDS011;4639;48.862;9.188;2023-05-16T04:58:38;64.43;;;44.30;;
9208;SDS011;4639;48.862;9.188;2023-05-16T05:01:03;57.67;;;44.78;;
9208;SDS011;4639;48.862;9.188;2023-05-16T05:03:29;64.72;;;45.05;;
9208;SDS011;4639;48.862;9.188;2023-05-16T05:05:55;58.03;;;44.22;;
9208;SDS011;4639;48.862;9.188;2023-05-16T05:08:20;61.25;;;46.63;;
9208;SDS011;4639;48.862;9.188;2023-05-16T05:10:46;65.15;;;46.38;;
9208;SDS011;4639;48.862;9.188;2023-05-16T05:13:12;61.88;;;44.97;;
9208;SDS011;4639;48.862;9.188;2023-05-16T05:15:38;60.53;;;45.03;;
9208;SDS011;4639;48.862;9.188;2023-05-16T05:18:03;63.53;;;46.95;;
9208;SDS011;4639;48.862;9.188;2023-05-16T05:20:29;62.58;;;45.83;;
9208;SDS011;4639;48.862;9.188;2023-05-16T05:22:55;59.63;;;44.20;;
9208;SDS011;4639;48.862;9.188;2023-05-16T05:25:20;64.57;;;45.60;;
9208;SDS011;4639;48.862;9.188;2023-05-16T05:27:46;61.55;;;45.67;;
9208;SDS011;4639;48.862;9.188;2023-05-16T05:30:12;60.85;;;44.80;;
9208;SDS011;4639;48.862;9.188;2023-05-16T05:32:38;55.97;;;44.55;;
9208;SDS011;4639;48.862;9.188;2023-05-16T05:35:03;58.45;;;44.20;;
9208;SDS011;4639;48.862;9.188;2023-05-16T05:37:29;58.78;;;44.30;;
9208;SDS011;4639;48.862;9.188;2023-05-16T05:39:55;63.05;;;45.08;;
9208;SDS011;4639;48.862;9.188;2023-05-16T05:42:20;56.03;;;43.08;;
9208;SDS011;4639;48.862;9.188;2023-05-16T05:44:46;59.50;;;43.00;;
9208;SDS011;4639;48.862;9.188;2023-05-16T05:47:12;55.88;;;43.85;;
9208;SDS011;4639;48.862;9.188;2023-05-16T05:49:37;56.85;;;42.45;;
9208;SDS011;4639;48.862;9.188;2023-05-16T05:52:03;58.38;;;43.17;;
9208;SDS011;4639;48.862;9.188;2023-05-16T05:54:29;56.28;;;42.08;;
9208;SDS011;4639;48.862;9.188;2023-05-16T05:56:56;57.45;;;42.03;;
9208;SDS011;4639;48.862;9.188;2023-05-16T05:59:22;53.63;;;42.10;;
9208;SDS011;4639;48.862;9.188;2023-05-16T06:01:47;51.00;;;40.80;;
9208;SDS011;4639;48.862;9.188;2023-05-16T06:04:16;49.55;;;37.55;;
9208;SDS011;4639;48.862;9.188;2023-05-16T06:06:42;44.25;;;36.15;;
9208;SDS011;4639;48.862;9.188;2023-05-16T06:09:08;44.80;;;36.88;;
9208;SDS011;4639;48.862;9.188;2023-05-16T06:11:33;43.03;;;34.40;;
9208;SDS011;4639;48.862;9.188;2023-05-16T06:13:59;38.72;;;32.58;;
9208;SDS011;4639;48.862;9.188;2023-05-16T06:16:25;39.20;;;31.45;;
9208;SDS011;4639;48.862;9.188;2023-05-16T06:18:50;37.35;;;31.42;;
9208;SDS011;4639;48.862;9.188;2023-05-16T06:21:16;37.85;;;30.85;;
9208;SDS011;4639;48.862;9.188;2023-05-16T06:23:42;39.65;;;31.25;;
9208;SDS011;4639;48.862;9.188;2023-05-16T06:26:07;38.75;;;31.25;;
9208;SDS011;4639;48.862;9.188;2023-05-16T06:28:33;36.22;;;31.42;;
9208;SDS011;4639;48.862;9.188;2023-05-16T06:30:58;34.72;;;30.90;;
9208;SDS011;4639;48.862;9.188;2023-05-16T06:33:24;37.63;;;31.67;;
9208;SDS011;4639;48.862;9.188;2023-05-16T06:35:50;40.72;;;32.15;;
9208;SDS011;4639;48.862;9.188;2023-05-16T06:38:16;37.85;;;31.90;;
9208;SDS011;4639;48.862;9.188;2023-05-16T06:40:43;39.55;;;30.60;;
9208;SDS011;4639;48.862;9.188;2023-05-16T06:43:13;34.85;;;29.80;;
9208;SDS011;4639;48.862;9.188;2023-05-16T06:45:38;34.28;;;30.05;;
9208;SDS011;4639;48.862;9.188;2023-05-16T06:48:05;32.17;;;27.75;;
9208;SDS011;4639;48.862;9.188;2023-05-16T06:50:31;32.33;;;28.73;;
9208;SDS011;4639;48.862;9.188;2023-05-16T06:52:59;30.00;;;26.77;;
9208;SDS011;4639;48.862;9.188;2023-05-16T06:55:24;33.67;;;27.58;;
9208;SDS011;4639;48.862;9.188;2023-05-16T06:57:50;29.52;;;25.23;;
9208;SDS011;4639;48.862;9.188;2023-05-16T07:00:16;28.75;;;23.35;;
9208;SDS011;4639;48.862;9.188;2023-05-16T07:02:42;29.60;;;23.80;;
9208;SDS011;4639;48.862;9.188;2023-05-16T07:05:08;25.88;;;23.10;;
9208;SDS011;4639;48.862;9.188;2023-05-16T07:07:34;27.30;;;22.42;;
9208;SDS011;4639;48.862;9.188;2023-05-16T07:10:00;25.77;;;22.35;;
9208;SDS011;4639;48.862;9.188;2023-05-16T07:12:25;25.25;;;22.30;;
9208;SDS011;4639;48.862;9.188;2023-05-16T07:14:51;23.55;;;19.92;;
9208;SDS011;4639;48.862;9.188;2023-05-16T07:17:16;21.20;;;19.00;;
9208;SDS011;4639;48.862;9.188;2023-05-16T07:19:42;20.65;;;18.30;;
9208;SDS011;4639;48.862;9.188;2023-05-16T07:22:07;19.92;;;17.77;;
9208;SDS011;4639;48.862;9.188;2023-05-16T07:24:33;19.95;;;17.52;;
9208;SDS011;4639;48.862;9.188;2023-05-16T07:27:00;18.88;;;16.58;;
9208;SDS011;4639;48.862;9.188;2023-05-16T07:29:25;17.77;;;15.80;;
9208;SDS011;4639;48.862;9.188;2023-05-16T07:31:51;17.63;;;15.95;;
9208;SDS011;4639;48.862;9.188;2023-05-16T07:34:16;16.75;;;15.05;;
9208;SDS011;4639;48.862;9.188;2023-05-16T07:36:42;16.98;;;15.27;;
9208;SDS011;4639;48.862;9.188;2023-05-16T07:39:08;16.17;;;14.57;;
9208;SDS011;4639;48.862;9.188;2023-05-16T07:41:33;15.25;;;13.63;;
9208;SDS011;4639;48.862;9.188;2023-05-16T07:43:59;15.13;;;13.63;;
9208;SDS011;4639;48.862;9.188;2023-05-16T07:46:24;14.48;;;13.00;;
9208;SDS011;4639;48.862;9.188;2023-05-16T07:48:50;14.00;;;12.65;;
9208;SDS011;4639;48.862;9.188;2023-05-16T07:51:16;14.55;;;12.80;;
9208;SDS011;4639;48.862;9.188;2023-05-16T07:53:41;14.18;;;12.88;;
9208;SDS011;4639;48.862;9.188;2023-05-16T07:56:07;15.30;;;12.75;;
9208;SDS011;4639;48.862;9.188;2023-05-16T07:58:33;12.63;;;11.50;;
9208;SDS011;4639;48.862;9.188;2023-05-16T08:00:58;14.57;;;12.50;;
9208;SDS011;4639;48.862;9.188;2023-05-16T08:03:24;13.95;;;12.65;;
9208;SDS011;4639;48.862;9.188;2023-05-16T08:05:50;11.75;;;10.73;;
9208;SDS011;4639;48.862;9.188;2023-05-16T08:08:15;15.68;;;13.98;;
9208;SDS011;4639;48.862;9.188;2023-05-16T08:10:41;13.63;;;12.23;;
9208;SDS011;4639;48.862;9.188;2023-05-16T08:13:07;11.75;;;10.65;;
9208;SDS011;4639;48.862;9.188;2023-05-16T08:15:33;12.23;;;10.93;;
9208;SDS011;4639;48.862;9.188;2023-05-16T08:17:59;13.82;;;12.43;;
9208;SDS011;4639;48.862;9.188;2023-05-16T08:20:25;14.48;;;12.98;;
9208;SDS011;4639;48.862;9.188;2023-05-16T08:22:51;16.40;;;14.63;;
9208;SDS011;4639;48.862;9.188;2023-05-16T08:25:16;16.05;;;14.45;;
9208;SDS011;4639;48.862;9.188;2023-05-16T08:27:43;16.52;;;14.80;;
9208;SDS011;4639;48.862;9.188;2023-05-16T08:30:10;16.85;;;15.10;;
9208;SDS011;4639;48.862;9.188;2023-05-16T08:32:36;17.33;;;15.70;;
9208;SDS011;4639;48.862;9.188;2023-05-16T08:35:02;17.00;;;15.30;;
9208;SDS011;4639;48.862;9.188;2023-05-16T08:37:28;17.52;;;15.73;;
9208;SDS011;4639;48.862;9.188;2023-05-16T08:39:54;18.95;;;17.13;;
9208;SDS011;4639;48.862;9.188;2023-05-16T08:42:19;18.77;;;16.92;;
9208;SDS011;4639;48.862;9.188;2023-05-16T08:44:45;19.65;;;17.70;;
9208;SDS011;4639;48.862;9.188;2023-05-16T08:47:11;19.80;;;17.38;;
9208;SDS011;4639;48.862;9.188;2023-05-16T08:49:42;20.60;;;18.45;;
9208;SDS011;4639;48.862;9.188;2023-05-16T08:52:08;20.23;;;18.02;;
9208;SDS011;4639;48.862;9.188;2023-05-16T08:54:35;20.05;;;17.95;;
9208;SDS011;4639;48.862;9.188;2023-05-16T08:57:01;21.52;;;19.05;;
9208;SDS011;4639;48.862;9.188;2023-05-16T08:59:27;20.20;;;18.17;;
9208;SDS011;4639;48.862;9.188;2023-05-16T09:01:54;20.55;;;18.35;;
9208;SDS011;4639;48.862;9.188;2023-05-16T09:04:22;21.63;;;19.40;;
9208;SDS011;4639;48.862;9.188;2023-05-16T09:06:49;23.75;;;21.25;;
9208;SDS011;4639;48.862;9.188;2023-05-16T09:09:16;23.20;;;20.70;;
9208;SDS011;4639;48.862;9.188;2023-05-16T09:11:41;24.45;;;21.95;;
9208;SDS011;4639;48.862;9.188;2023-05-16T09:14:07;25.02;;;22.35;;
9208;SDS011;4639;48.862;9.188;2023-05-16T09:16:33;24.27;;;21.52;;
9208;SDS011;4639;48.862;9.188;2023-05-16T09:18:59;24.27;;;21.70;;
9208;SDS011;4639;48.862;9.188;2023-05-16T09:21:28;26.15;;;23.33;;
9208;SDS011;4639;48.862;9.188;2023-05-16T09:24:01;25.48;;;22.52;;
9208;SDS011;4639;48.862;9.188;2023-05-16T09:26:28;26.45;;;23.17;;
9208;SDS011;4639;48.862;9.188;2023-05-16T09:28:55;25.88;;;22.27;;
9208;SDS011;4639;48.862;9.188;2023-05-16T09:31:21;28.35;;;23.30;;
9208;SDS011;4639;48.862;9.188;2023-05-16T09:33:50;26.25;;;22.88;;
9208;SDS011;4639;48.862;9.188;2023-05-16T09:36:17;25.58;;;22.48;;
9208;SDS011;4639;48.862;9.188;2023-05-16T09:38:43;24.40;;;21.55;;
9208;SDS011;4639;48.862;9.188;2023-05-16T09:41:09;22.90;;;20.60;;
9208;SDS011;4639;48.862;9.188;2023-05-16T09:43:37;24.35;;;21.50;;
9208;SDS011;4639;48.862;9.188;2023-05-16T09:46:04;26.90;;;22.65;;
9208;SDS011;4639;48.862;9.188;2023-05-16T09:48:31;25.52;;;22.80;;
9208;SDS011;4639;48.862;9.188;2023-05-16T09:50:57;28.98;;;22.77;;
9208;SDS011;4639;48.862;9.188;2023-05-16T09:53:29;24.80;;;22.20;;
9208;SDS011;4639;48.862;9.188;2023-05-16T09:58:36;25.90;;;21.98;;
9208;SDS011;4639;48.862;9.188;2023-05-16T10:01:03;24.15;;;21.58;;
9208;SDS011;4639;48.862;9.188;2023-05-16T10:03:29;25.05;;;20.75;;
9208;SDS011;4639;48.862;9.188;2023-05-16T10:05:56;23.52;;;21.05;;
9208;SDS011;4639;48.862;9.188;2023-05-16T10:08:24;23.63;;;19.38;;
9208;SDS011;4639;48.862;9.188;2023-05-16T10:10:51;24.02;;;21.17;;
9208;SDS011;4639;48.862;9.188;2023-05-16T10:13:21;23.25;;;20.50;;
9208;SDS011;4639;48.862;9.188;2023-05-16T10:15:49;22.88;;;19.85;;
9208;SDS011;4639;48.862;9.188;2023-05-16T10:18:21;24.67;;;19.17;;
9208;SDS011;4639;48.862;9.188;2023-05-16T10:20:48;23.98;;;21.38;;
9208;SDS011;4639;48.862;9.188;2023-05-16T10:23:18;20.98;;;18.63;;
9208;SDS011;4639;48.862;9.188;2023-05-16T10:25:45;23.10;;;20.08;;
9208;SDS011;4639;48.862;9.188;2023-05-16T10:28:12;24.15;;;20.63;;
9208;SDS011;4639;48.862;9.188;2023-05-16T10:30:40;24.92;;;19.48;;
9208;SDS011;4639;48.862;9.188;2023-05-16T10:33:08;21.60;;;18.67;;
9208;SDS011;4639;48.862;9.188;2023-05-16T10:35:38;21.67;;;18.10;;
9208;SDS011;4639;48.862;9.188;2023-05-16T10:38:05;21.30;;;17.80;;
9208;SDS011;4639;48.862;9.188;2023-05-16T10:40:32;21.00;;;18.77;;
9208;SDS011;4639;48.862;9.188;2023-05-16T10:43:00;20.70;;;18.42;;
9208;SDS011;4639;48.862;9.188;2023-05-16T10:45:27;20.88;;;18.35;;
9208;SDS011;4639;48.862;9.188;2023-05-16T10:47:59;22.20;;;18.15;;
9208;SDS011;4639;48.862;9.188;2023-05-16T10:50:41;19.58;;;17.00;;
9208;SDS011;4639;48.862;9.188;2023-05-16T11:14:16;14.70;;;13.10;;
9208;SDS011;4639;48.862;9.188;2023-05-16T11:17:00;12.57;;;10.82;;
9208;SDS011;4639;48.862;9.188;2023-05-16T11:19:31;12.13;;;10.77;;
9208;SDS011;4639;48.862;9.188;2023-05-16T11:25:08;13.32;;;11.93;;
9208;SDS011;4639;48.862;9.188;2023-05-16T11:27:44;11.00;;;9.80;;
9208;SDS011;4639;48.862;9.188;2023-05-16T11:30:11;13.05;;;10.70;;
9208;SDS011;4639;48.862;9.188;2023-05-16T11:32:40;11.48;;;10.05;;
9208;SDS011;4639;48.862;9.188;2023-05-16T11:35:16;12.43;;;10.18;;
9208;SDS011;4639;48.862;9.188;2023-05-16T11:37:43;11.48;;;9.75;;
9208;SDS011;4639;48.862;9.188;2023-05-16T11:40:10;10.98;;;9.00;;
9208;SDS011;4639;48.862;9.188;2023-05-16T11:42:38;11.52;;;9.80;;
9208;SDS011;4639;48.862;9.188;2023-05-16T11:45:09;10.60;;;9.60;;
9208;SDS011;4639;48.862;9.188;2023-05-16T11:47:36;12.07;;;10.35;;
9208;SDS011;4639;48.862;9.188;2023-05-16T11:50:09;9.90;;;8.90;;
9208;SDS011;4639;48.862;9.188;2023-05-16T11:52:35;10.27;;;9.18;;
9208;SDS011;4639;48.862;9.188;2023-05-16T11:55:03;10.68;;;9.57;;
9208;SDS011;4639;48.862;9.188;2023-05-16T11:57:30;9.32;;;8.43;;
9208;SDS011;4639;48.862;9.188;2023-05-16T12:00:00;9.98;;;9.00;;
9208;SDS011;4639;48.862;9.188;2023-05-16T12:02:48;9.10;;;8.20;;
9208;SDS011;4639;48.862;9.188;2023-05-16T12:05:14;11.07;;;8.27;;
9208;SDS011;4639;48.862;9.188;2023-05-16T12:07:44;10.10;;;7.82;;
9208;SDS011;4639;48.862;9.188;2023-05-16T12:10:12;8.90;;;7.80;;
9208;SDS011;4639;48.862;9.188;2023-05-16T12:12:47;8.35;;;7.45;;
9208;SDS011;4639;48.862;9.188;2023-05-16T12:15:16;6.70;;;6.10;;
9208;SDS011;4639;48.862;9.188;2023-05-16T12:17:42;6.13;;;5.38;;
9208;SDS011;4639;48.862;9.188;2023-05-16T12:20:08;6.70;;;5.50;;
9208;SDS011;4639;48.862;9.188;2023-05-16T12:22:39;5.47;;;4.97;;
9208;SDS011;4639;48.862;9.188;2023-05-16T12:25:17;6.28;;;4.63;;
9208;SDS011;4639;48.862;9.188;2023-05-16T12:27:53;5.38;;;4.55;;
9208;SDS011;4639;48.862;9.188;2023-05-16T12:30:24;5.28;;;4.40;;
9208;SDS011;4639;48.862;9.188;2023-05-16T12:33:01;4.85;;;4.35;;
9208;SDS011;4639;48.862;9.188;2023-05-16T12:35:39;5.97;;;4.18;;
9208;SDS011;4639;48.862;9.188;2023-05-16T12:38:07;5.88;;;4.50;;
9208;SDS011;4639;48.862;9.188;2023-05-16T12:40:38;5.70;;;4.57;;
9208;SDS011;4639;48.862;9.188;2023-05-16T12:45:49;5.75;;;3.90;;
9208;SDS011;4639;48.862;9.188;2023-05-16T12:48:16;3.95;;;3.63;;
9208;SDS011;4639;48.862;9.188;2023-05-16T12:50:42;4.20;;;3.80;;
9208;SDS011;4639;48.862;9.188;2023-05-16T12:53:11;3.78;;;3.47;;
9208;SDS011;4639;48.862;9.188;2023-05-16T12:55:37;3.83;;;3.50;;
9208;SDS011;4639;48.862;9.188;2023-05-16T12:58:03;3.78;;;3.47;;
9208;SDS011;4639;48.862;9.188;2023-05-16T13:00:29;4.32;;;3.60;;
9208;SDS011;4639;48.862;9.188;2023-05-16T13:02:56;3.30;;;2.88;;
9208;SDS011;4639;48.862;9.188;2023-05-16T13:05:21;5.28;;;3.30;;
9208;SDS011;4639;48.862;9.188;2023-05-16T13:07:47;3.88;;;3.47;;
9208;SDS011;4639;48.862;9.188;2023-05-16T13:10:15;4.97;;;3.80;;
9208;SDS011;4639;48.862;9.188;2023-05-16T13:12:41;4.47;;;3.33;;
9208;SDS011;4639;48.862;9.188;2023-05-16T13:15:08;7.78;;;5.78;;
9208;SDS011;4639;48.862;9.188;2023-05-16T13:17:36;6.82;;;5.30;;
9208;SDS011;4639;48.862;9.188;2023-05-16T13:20:03;4.13;;;2.97;;
9208;SDS011;4639;48.862;9.188;2023-05-16T13:22:33;6.32;;;3.50;;
9208;SDS011;4639;48.862;9.188;2023-05-16T13:24:59;3.30;;;2.58;;
9208;SDS011;4639;48.862;9.188;2023-05-16T13:27:24;2.83;;;2.40;;
9208;SDS011;4639;48.862;9.188;2023-05-16T13:29:50;3.03;;;2.50;;
9208;SDS011;4639;48.862;9.188;2023-05-16T13:32:15;3.22;;;2.80;;
9208;SDS011;4639;48.862;9.188;2023-05-16T13:34:42;2.95;;;2.33;;
9208;SDS011;4639;48.862;9.188;2023-05-16T13:37:08;3.72;;;2.53;;
9208;SDS011;4639;48.862;9.188;2023-05-16T13:39:34;2.88;;;2.58;;
9208;SDS011;4639;48.862;9.188;2023-05-16T13:42:00;3.70;;;2.47;;
9208;SDS011;4639;48.862;9.188;2023-05-16T13:44:27;5.03;;;2.75;;
9208;SDS011;4639;48.862;9.188;2023-05-16T13:46:53;3.38;;;2.28;;
9208;SDS011;4639;48.862;9.188;2023-05-16T13:49:20;3.63;;;2.40;;
9208;SDS011;4639;48.862;9.188;2023-05-16T13:51:46;5.63;;;2.50;;
9208;SDS011;4639;48.862;9.188;2023-05-16T13:54:11;2.83;;;2.42;;
9208;SDS011;4639;48.862;9.188;2023-05-16T13:56:37;3.38;;;2.25;;
9208;SDS011;4639;48.862;9.188;2023-05-16T13:59:03;2.83;;;2.58;;
9208;SDS011;4639;48.862;9.188;2023-05-16T14:01:28;3.35;;;2.63;;
9208;SDS011;4639;48.862;9.188;2023-05-16T14:03:54;5.43;;;2.58;;
9208;SDS011;4639;48.862;9.188;2023-05-16T14:06:20;2.92;;;2.30;;
9208;SDS011;4639;48.862;9.188;2023-05-16T14:08:45;6.80;;;2.72;;
9208;SDS011;4639;48.862;9.188;2023-05-16T14:11:11;6.10;;;2.92;;
9208;SDS011;4639;48.862;9.188;2023-05-16T14:13:37;7.07;;;3.13;;
9208;SDS011;4639;48.862;9.188;2023-05-16T14:16:04;2.83;;;2.63;;
9208;SDS011;4639;48.862;9.188;2023-05-16T14:18:30;3.75;;;2.58;;
9208;SDS011;4639;48.862;9.188;2023-05-16T14:20:56;2.92;;;2.42;;
9208;SDS011;4639;48.862;9.188;2023-05-16T14:23:21;4.30;;;2.75;;
9208;SDS011;4639;48.862;9.188;2023-05-16T14:25:47;4.00;;;2.92;;
9208;SDS011;4639;48.862;9.188;2023-05-16T14:28:13;3.17;;;2.40;;
9208;SDS011;4639;48.862;9.188;2023-05-16T14:30:39;3.53;;;2.30;;
9208;SDS011;4639;48.862;9.188;2023-05-16T14:33:04;3.15;;;2.08;;
9208;SDS011;4639;48.862;9.188;2023-05-16T14:35:31;4.57;;;2.22;;
9208;SDS011;4639;48.862;9.188;2023-05-16T14:37:56;3.83;;;2.25;;
9208;SDS011;4639;48.862;9.188;2023-05-16T14:40:22;4.70;;;2.30;;
9208;SDS011;4639;48.862;9.188;2023-05-16T14:42:48;4.22;;;1.98;;
9208;SDS011;4639;48.862;9.188;2023-05-16T14:45:14;3.00;;;2.22;;
9208;SDS011;4639;48.862;9.188;2023-05-16T14:47:40;2.60;;;1.98;;
9208;SDS011;4639;48.862;9.188;2023-05-16T14:50:06;3.88;;;1.60;;
9208;SDS011;4639;48.862;9.188;2023-05-16T14:52:32;5.03;;;1.70;;
9208;SDS011;4639;48.862;9.188;2023-05-16T14:54:58;3.55;;;2.25;;
9208;SDS011;4639;48.862;9.188;2023-05-16T14:57:25;2.97;;;1.70;;
9208;SDS011;4639;48.862;9.188;2023-05-16T14:59:51;3.63;;;1.67;;
9208;SDS011;4639;48.862;9.188;2023-05-16T15:02:16;4.22;;;2.00;;
9208;SDS011;4639;48.862;9.188;2023-05-16T15:04:42;4.50;;;1.58;;
9208;SDS011;4639;48.862;9.188;2023-05-16T15:07:08;2.63;;;1.70;;
9208;SDS011;4639;48.862;9.188;2023-05-16T15:09:34;4.28;;;1.52;;
9208;SDS011;4639;48.862;9.188;2023-05-16T15:11:59;3.90;;;1.70;;
9208;SDS011;4639;48.862;9.188;2023-05-16T15:14:25;3.53;;;1.70;;
9208;SDS011;4639;48.862;9.188;2023-05-16T15:16:51;2.83;;;2.00;;
9208;SDS011;4639;48.862;9.188;2023-05-16T15:19:16;8.95;;;6.70;;
9208;SDS011;4639;48.862;9.188;2023-05-16T15:21:42;7.50;;;4.70;;
9208;SDS011;4639;48.862;9.188;2023-05-16T15:24:08;5.97;;;2.50;;
9208;SDS011;4639;48.862;9.188;2023-05-16T15:26:33;4.75;;;3.05;;
9208;SDS011;4639;48.862;9.188;2023-05-16T15:28:59;4.82;;;1.80;;
9208;SDS011;4639;48.862;9.188;2023-05-16T15:31:25;2.67;;;1.60;;
9208;SDS011;4639;48.862;9.188;2023-05-16T15:33:50;4.85;;;1.77;;
9208;SDS011;4639;48.862;9.188;2023-05-16T15:36:16;6.43;;;2.00;;